KHEI

Hettinger Municipal Airport

Hettinger, North Dakota, USA
METAR KHEI 231053Z AUTO 29010KT 10SM CLR M04/M08 A3002 RMK AO2 SLP197 T10441078
Observed Flight Rules
Jan-23 @ 10:53 UTC (an hour ago) Visual Flight Rules
Wind Visibility Clouds
290° at 10 knots 10 miles
  • Clear skies
Temperatures Readings
Current -4°C / 25°F
Dewpoint -8°C / 18°F
Humidity 74%
Altimeter 30.02" Hg
Pressure 1019.7 hPa
Elevation 828
METAR KHEI 231053Z AUTO 29010KT 10SM CLR M04/M08 A3002 RMK AO2 SLP197 T10441078
Observed Flight Rules
Jan-23 @ 10:53 UTC
(an hour ago)
VFR
Wind Visibility
290° at 10 knots 10 miles
Clouds
  • Clear skies
Temperature Dewpoint
-4°C / 25°F -8°C / 18°F
Humidity Altimeter Pressure
74% 30.02" Hg 1019.7 hPa